Time;durP1;ratioP1;P1;durP2;ratioP2;P2;SDS_P1;SDS_P2;PMS_P1;PMS_P2;Temp;Humidity;BMP_temperature;BMP_pressure;BME280_temperature;BME280_humidity;BME280_pressure;Samples;Min_cycle;Max_cycle;Signal;HPM_P1;HPM_P2
2021/12/09 00:02:19;;;;;;;17.20;7.67;;;;;;;1.54;89.71;100127.31;5029827;28;20461;-62
2021/12/09 00:04:44;;;;;;;16.90;7.73;;;;;;;1.55;89.71;100122.91;5033083;28;20025;-61
2021/12/09 00:07:10;;;;;;;15.70;7.60;;;;;;;1.56;89.70;100125.41;5033621;28;20075;-61
2021/12/09 00:09:35;;;;;;;20.50;7.80;;;;;;;1.54;89.51;100129.94;5033451;28;20455;-62
2021/12/09 00:12:01;;;;;;;20.20;7.73;;;;;;;1.55;89.74;100130.75;5032956;28;20121;-61
2021/12/09 00:14:29;;;;;;;14.60;7.43;;;;;;;1.53;89.50;100130.03;5033637;28;20041;-61
2021/12/09 00:16:57;;;;;;;17.40;7.30;;;;;;;1.56;89.80;100124.56;5031387;28;20052;-61
2021/12/09 00:19:23;;;;;;;16.80;7.60;;;;;;;1.54;89.54;100126.47;5031782;28;20048;-61
2021/12/09 00:21:49;;;;;;;16.53;7.93;;;;;;;1.53;89.72;100127.44;5030799;28;20090;-61
2021/12/09 00:24:14;;;;;;;17.40;8.03;;;;;;;1.52;89.48;100128.38;5031635;28;20025;-61
2021/12/09 00:26:39;;;;;;;16.90;8.30;;;;;;;1.51;89.48;100131.94;5032618;28;20071;-62
2021/12/09 00:29:06;;;;;;;18.00;8.40;;;;;;;1.45;89.63;100131.47;5032721;28;20025;-61
2021/12/09 00:31:32;;;;;;;15.67;7.43;;;;;;;1.46;89.77;100138.38;5023297;28;20021;-61
2021/12/09 00:33:59;;;;;;;17.70;8.00;;;;;;;1.46;89.84;100135.75;5032981;28;20393;-61
2021/12/09 00:36:32;;;;;;;19.67;7.90;;;;;;;1.45;90.24;100139.31;5033057;28;20029;-61
2021/12/09 00:38:58;;;;;;;15.90;8.15;;;;;;;1.44;89.65;100140.25;5029006;28;20333;-60
2021/12/09 00:41:24;;;;;;;17.77;7.43;;;;;;;1.45;89.80;100139.31;5032634;28;20029;-62
2021/12/09 00:43:50;;;;;;;18.47;8.30;;;;;;;1.46;89.92;100134.91;5031603;28;20048;-61
2021/12/09 00:46:15;;;;;;;20.43;7.80;;;;;;;1.47;89.97;100140.03;5031631;28;20026;-61
2021/12/09 00:48:41;;;;;;;20.00;8.00;;;;;;;1.47;89.83;100136.56;5031175;28;20110;-61
2021/12/09 00:51:07;;;;;;;15.90;7.70;;;;;;;1.45;89.90;100131.47;5032144;28;20049;-61
2021/12/09 00:53:34;;;;;;;17.90;7.70;;;;;;;1.46;90.26;100133.13;5028978;28;20030;-61
2021/12/09 00:55:59;;;;;;;18.30;7.70;;;;;;;1.48;90.07;100135.59;5032791;28;20057;-61
2021/12/09 00:58:24;;;;;;;21.73;8.30;;;;;;;1.51;90.18;100138.00;5029133;28;20029;-61
2021/12/09 01:00:50;;;;;;;18.10;7.43;;;;;;;1.54;89.86;100139.53;5030458;28;20027;-61
2021/12/09 01:03:16;;;;;;;20.13;7.97;;;;;;;1.52;89.92;100141.44;5029775;28;20046;-61
2021/12/09 01:05:44;;;;;;;18.43;7.57;;;;;;;1.53;90.44;100140.50;5030565;28;20412;-61
2021/12/09 01:08:10;;;;;;;18.20;7.60;;;;;;;1.53;90.01;100137.88;5032099;28;20033;-61
2021/12/09 01:10:35;;;;;;;16.07;7.43;;;;;;;1.53;89.78;100146.53;5032156;28;20036;-61
2021/12/09 01:13:01;;;;;;;18.70;7.60;;;;;;;1.53;89.86;100143.13;5031964;28;20032;-61
2021/12/09 01:15:26;;;;;;;17.40;7.93;;;;;;;1.53;89.75;100145.72;5032734;28;20156;-61
2021/12/09 01:17:52;;;;;;;17.10;7.63;;;;;;;1.51;89.83;100152.84;5030939;28;20037;-60
2021/12/09 01:20:22;;;;;;;16.90;7.63;;;;;;;1.49;89.79;100150.38;5030561;28;20025;-62
2021/12/09 01:22:47;;;;;;;16.33;7.53;;;;;;;1.48;89.88;100149.53;5030513;28;20029;-61
2021/12/09 01:25:16;;;;;;;18.90;7.23;;;;;;;1.45;89.50;100149.78;5031906;28;20029;-61
2021/12/09 01:27:44;;;;;;;16.67;7.50;;;;;;;1.46;89.95;100151.44;5028329;28;20021;-61
2021/12/09 01:30:16;;;;;;;15.23;7.10;;;;;;;1.46;89.76;100155.81;5030660;28;20497;-61
2021/12/09 01:32:48;;;;;;;15.33;7.60;;;;;;;1.45;89.88;100160.22;5031791;28;20125;-61
2021/12/09 01:35:15;;;;;;;13.88;7.45;;;;;;;1.46;90.03;100155.81;5030901;28;20658;-61
2021/12/09 01:37:40;;;;;;;17.20;7.90;;;;;;;1.43;89.87;100149.03;5030354;28;20018;-61
2021/12/09 01:40:08;;;;;;;20.13;7.63;;;;;;;1.44;89.87;100158.53;5030989;28;20382;-61
2021/12/09 01:42:33;;;;;;;15.90;7.43;;;;;;;1.40;89.87;100151.91;5030973;28;20045;-61
2021/12/09 01:44:59;;;;;;;18.13;7.53;;;;;;;1.38;89.91;100150.34;5032056;28;20042;-61
2021/12/09 01:47:24;;;;;;;14.87;7.23;;;;;;;1.37;89.98;100151.31;5030157;28;20041;-61
2021/12/09 01:49:49;;;;;;;17.10;7.33;;;;;;;1.37;90.00;100152.13;5029198;28;20332;-61
2021/12/09 01:52:15;;;;;;;14.93;7.57;;;;;;;1.36;89.96;100147.84;5031713;28;20379;-61
2021/12/09 01:54:40;;;;;;;21.07;7.87;;;;;;;1.36;90.01;100134.78;5030182;28;20052;-61
2021/12/09 01:57:06;;;;;;;18.10;7.73;;;;;;;1.33;89.94;100140.28;5031648;28;20080;-61
2021/12/09 01:59:32;;;;;;;19.27;7.40;;;;;;;1.32;90.10;100143.81;5029305;28;20029;-61
2021/12/09 02:01:57;;;;;;;14.27;7.33;;;;;;;1.31;89.96;100143.00;5030399;28;20394;-61
2021/12/09 02:04:23;;;;;;;19.37;8.07;;;;;;;1.32;90.12;100143.81;5031237;28;20096;-61
2021/12/09 02:06:49;;;;;;;16.70;7.40;;;;;;;1.30;90.14;100143.94;5030501;28;20041;-61
2021/12/09 02:09:15;;;;;;;16.03;7.17;;;;;;;1.29;90.12;100144.88;5030512;28;20033;-61
2021/12/09 02:11:41;;;;;;;15.70;7.20;;;;;;;1.28;90.25;100139.78;5029559;28;20033;-61
2021/12/09 02:14:08;;;;;;;19.63;7.23;;;;;;;1.25;90.17;100140.84;5030472;28;20548;-61
2021/12/09 02:16:34;;;;;;;18.77;7.63;;;;;;;1.20;90.16;100146.41;5029717;28;20477;-61
2021/12/09 02:19:00;;;;;;;17.53;7.40;;;;;;;1.17;90.50;100144.06;5030730;28;20022;-61
2021/12/09 02:21:29;;;;;;;15.00;7.40;;;;;;;1.14;90.12;100138.22;5030945;28;20033;-61
2021/12/09 02:23:58;;;;;;;16.10;7.33;;;;;;;1.07;90.20;100140.47;5029582;28;20080;-61
2021/12/09 02:26:28;;;;;;;17.57;7.77;;;;;;;1.12;90.45;100140.97;5028356;28;20418;-61
2021/12/09 02:28:54;;;;;;;16.50;7.50;;;;;;;1.09;90.61;100138.59;5026216;28;20021;-61
2021/12/09 02:31:20;;;;;;;16.17;7.30;;;;;;;1.04;90.05;100135.50;5030453;28;20124;-61
2021/12/09 02:33:46;;;;;;;18.60;7.37;;;;;;;1.04;90.71;100136.31;5029123;28;20469;-62
2021/12/09 02:36:11;;;;;;;17.27;7.37;;;;;;;1.05;90.42;100134.53;5029954;28;20053;-61
2021/12/09 02:38:43;;;;;;;16.80;7.47;;;;;;;1.04;90.74;100135.50;5025897;28;20049;-61
2021/12/09 02:41:15;;;;;;;18.77;7.43;;;;;;;1.04;90.61;100135.50;5030499;28;20356;-61
2021/12/09 02:43:42;;;;;;;18.63;7.37;;;;;;;1.01;90.63;100130.50;5030491;28;20030;-61
2021/12/09 02:46:07;;;;;;;18.83;7.00;;;;;;;1.05;90.52;100134.53;5029563;28;20049;-61
2021/12/09 02:48:34;;;;;;;17.90;7.03;;;;;;;1.02;90.46;100142.59;5030936;28;20033;-61
2021/12/09 02:51:00;;;;;;;15.23;7.53;;;;;;;0.99;90.97;100140.22;5032178;28;20448;-61
2021/12/09 02:53:26;;;;;;;20.83;7.03;;;;;;;0.99;90.49;100142.84;5031310;28;20072;-61
2021/12/09 02:55:51;;;;;;;17.30;7.50;;;;;;;1.01;90.42;100140.94;5031288;28;20033;-61
2021/12/09 02:58:17;;;;;;;18.87;7.30;;;;;;;0.99;90.67;100137.63;5029831;28;20087;-61
2021/12/09 03:00:56;;;;;;;18.50;7.43;;;;;;;0.94;91.22;100145.81;5030065;28;20087;-61
2021/12/09 03:03:21;;;;;;;16.03;7.33;;;;;;;0.93;90.50;100150.19;5026895;28;20088;-61
2021/12/09 03:05:47;;;;;;;18.30;7.03;;;;;;;0.96;90.83;100148.28;5026819;28;20053;-61
2021/12/09 03:08:20;;;;;;;16.77;6.90;;;;;;;0.93;90.89;100150.19;5022026;28;20030;-61
2021/12/09 03:10:46;;;;;;;16.60;7.87;;;;;;;0.93;90.84;100158.03;5023041;28;20568;-61
2021/12/09 03:13:12;;;;;;;14.93;6.67;;;;;;;0.91;90.97;100157.31;5027750;28;20030;-61
2021/12/09 03:15:37;;;;;;;17.00;6.93;;;;;;;0.94;90.85;100153.66;5029098;28;20032;-61
2021/12/09 03:18:02;;;;;;;19.77;7.43;;;;;;;0.93;90.74;100154.56;5027226;28;20466;-61
2021/12/09 03:20:28;;;;;;;18.13;6.97;;;;;;;0.92;91.02;100164.19;5030779;28;20033;-62
2021/12/09 03:22:53;;;;;;;19.53;7.37;;;;;;;0.92;90.77;100161.59;5028584;28;20029;-61
2021/12/09 03:25:20;;;;;;;17.43;6.97;;;;;;;0.92;90.81;100174.63;5028483;28;20324;-61
2021/12/09 03:27:46;;;;;;;17.30;6.40;;;;;;;0.91;90.96;100172.97;5029475;28;20037;-61
2021/12/09 03:30:14;;;;;;;12.93;6.63;;;;;;;0.89;90.78;100174.84;5026373;28;21244;-61
2021/12/09 03:32:40;;;;;;;15.83;6.77;;;;;;;0.92;91.09;100173.78;5028932;28;20033;-61
2021/12/09 03:35:08;;;;;;;17.37;7.03;;;;;;;0.88;90.92;100172.38;5030266;28;20033;-61
2021/12/09 03:37:34;;;;;;;18.10;7.00;;;;;;;0.83;91.17;100166.66;5028175;28;20113;-61
2021/12/09 03:39:59;;;;;;;17.23;6.30;;;;;;;0.84;91.04;100168.31;5029356;28;20033;-61
2021/12/09 03:42:27;;;;;;;19.13;6.37;;;;;;;0.82;91.39;100173.66;5030231;28;20038;-62
2021/12/09 03:44:53;;;;;;;15.87;6.30;;;;;;;0.84;91.22;100182.19;5029092;28;20478;-61
2021/12/09 03:47:22;;;;;;;16.43;6.17;;;;;;;0.86;90.99;100182.09;5030352;28;20113;-61
2021/12/09 03:49:48;;;;;;;16.17;6.27;;;;;;;0.85;91.05;100189.09;5029969;28;20044;-62
2021/12/09 03:52:14;;;;;;;12.73;5.93;;;;;;;0.85;91.00;100186.50;5028695;28;20025;-61
2021/12/09 03:54:42;;;;;;;14.40;5.80;;;;;;;0.84;91.07;100192.63;5028462;28;20073;-61
2021/12/09 03:57:09;;;;;;;15.90;6.17;;;;;;;0.86;91.15;100190.75;5027034;28;20029;-61
2021/12/09 03:59:35;;;;;;;15.77;5.93;;;;;;;0.85;90.85;100189.09;5027724;28;20493;-61
2021/12/09 04:02:00;;;;;;;17.60;6.10;;;;;;;0.87;90.72;100196.78;5028192;28;20083;-61
2021/12/09 04:04:26;;;;;;;15.23;5.97;;;;;;;0.84;91.10;100187.41;5029912;28;20049;-61
2021/12/09 04:06:52;;;;;;;13.80;6.10;;;;;;;0.82;90.87;100189.31;5028584;28;20029;-61
2021/12/09 04:09:19;;;;;;;12.87;6.13;;;;;;;0.81;91.04;100182.44;5028786;28;20067;-61
2021/12/09 04:11:45;;;;;;;18.07;5.87;;;;;;;0.78;90.70;100173.06;5029267;28;20570;-61
2021/12/09 04:14:10;;;;;;;11.63;5.77;;;;;;;0.79;91.11;100168.69;5029358;28;20101;-61
2021/12/09 04:16:37;;;;;;;14.47;6.10;;;;;;;0.80;91.14;100175.56;5024968;28;20033;-61
2021/12/09 04:19:04;;;;;;;13.27;5.83;;;;;;;0.82;91.13;100180.63;5029312;28;20034;-61
2021/12/09 04:21:30;;;;;;;13.33;5.90;;;;;;;0.81;90.69;100185.03;5029282;28;20398;-61
2021/12/09 04:23:55;;;;;;;13.73;5.87;;;;;;;0.79;90.56;100179.94;5030223;28;20029;-61
2021/12/09 04:26:21;;;;;;;14.83;5.67;;;;;;;0.78;91.03;100183.50;5028018;28;20030;-61
2021/12/09 04:28:47;;;;;;;13.00;5.53;;;;;;;0.76;90.84;100179.34;5030641;28;21029;-59
2021/12/09 04:31:12;;;;;;;12.47;5.60;;;;;;;0.76;90.97;100189.78;5026907;28;20516;-61
2021/12/09 04:33:38;;;;;;;11.93;5.50;;;;;;;0.76;91.03;100190.63;5029846;28;20110;-61
2021/12/09 04:36:04;;;;;;;16.27;6.00;;;;;;;0.75;90.70;100194.16;5029053;28;20449;-61
2021/12/09 04:38:29;;;;;;;14.50;5.30;;;;;;;0.75;91.23;100188.94;5030201;28;20029;-61
2021/12/09 04:40:55;;;;;;;14.70;5.53;;;;;;;0.77;91.00;100199.25;5034083;28;20458;-61
2021/12/09 04:43:20;;;;;;;14.03;5.23;;;;;;;0.76;90.67;100202.81;5030906;28;20056;-61
2021/12/09 04:45:47;;;;;;;11.60;5.10;;;;;;;0.72;90.90;100207.44;5031255;28;20112;-61
2021/12/09 04:48:12;;;;;;;16.07;5.97;;;;;;;0.70;90.69;100196.28;5031307;28;20025;-61
2021/12/09 04:50:39;;;;;;;12.90;5.33;;;;;;;0.66;90.96;100200.91;5032672;28;20056;-61
2021/12/09 04:53:05;;;;;;;16.73;5.70;;;;;;;0.62;90.96;100198.63;5031593;28;20037;-61
2021/12/09 04:55:32;;;;;;;15.63;5.20;;;;;;;0.65;90.96;100203.63;5031987;28;20118;-61
2021/12/09 04:57:57;;;;;;;17.03;5.77;;;;;;;0.62;91.52;100198.63;5028549;28;20047;-61
2021/12/09 05:00:26;;;;;;;15.40;5.30;;;;;;;0.59;91.00;100194.44;5027655;28;20034;-61
2021/12/09 05:03:04;;;;;;;13.67;5.20;;;;;;;0.62;91.28;100199.47;5022651;28;20131;-61
2021/12/09 05:05:50;;;;;;;14.80;5.53;;;;;;;0.61;90.93;100196.94;5027982;28;20029;-61
2021/12/09 05:08:18;;;;;;;13.97;5.20;;;;;;;0.59;91.10;100194.44;5030530;28;20112;-61
2021/12/09 05:13:16;;;;;;;14.20;5.53;;;;;;;0.59;91.37;100201.47;5031840;28;20033;-61
2021/12/09 05:15:42;;;;;;;15.60;5.20;;;;;;;0.55;91.13;100211.28;5029133;28;20041;-61
2021/12/09 05:18:08;;;;;;;13.93;5.03;;;;;;;0.53;91.50;100215.78;5029213;28;20026;-61
2021/12/09 05:20:33;;;;;;;15.30;5.33;;;;;;;0.53;91.48;100221.00;5032246;28;20037;-61
2021/12/09 05:22:58;;;;;;;16.23;5.37;;;;;;;0.49;91.93;100217.78;5031912;28;20040;-61
2021/12/09 05:25:23;;;;;;;15.23;5.07;;;;;;;0.52;91.69;100219.34;5031155;28;20532;-60
2021/12/09 05:27:49;;;;;;;15.53;5.77;;;;;;;0.51;91.86;100215.91;5028687;28;20048;-61
2021/12/09 05:30:15;;;;;;;17.07;5.50;;;;;;;0.52;91.57;100214.13;5028709;28;20372;-61
2021/12/09 05:32:40;;;;;;;17.77;5.40;;;;;;;0.53;91.41;100215.78;5032355;28;20041;-61
2021/12/09 05:35:06;;;;;;;17.53;5.47;;;;;;;0.54;91.67;100214.81;5026396;28;20026;-61
2021/12/09 05:37:31;;;;;;;15.23;5.20;;;;;;;0.51;91.44;100207.22;5024296;28;20493;-61
2021/12/09 05:39:59;;;;;;;17.37;5.03;;;;;;;0.53;91.86;100215.78;5025858;28;20030;-61
2021/12/09 05:42:25;;;;;;;15.27;5.60;;;;;;;0.55;91.83;100216.50;5024343;28;20037;-61
2021/12/09 05:44:51;;;;;;;12.03;5.20;;;;;;;0.56;91.68;100226.00;5024939;28;20112;-59
2021/12/09 05:47:16;;;;;;;14.37;5.40;;;;;;;0.59;91.68;100225.75;5022025;28;20167;-61
2021/12/09 05:49:44;;;;;;;16.13;5.60;;;;;;;0.57;91.68;100227.66;5026276;28;20548;-61
2021/12/09 05:52:11;;;;;;;13.33;5.30;;;;;;;0.61;91.59;100236.94;5026329;28;20026;-61
2021/12/09 05:54:37;;;;;;;16.90;5.50;;;;;;;0.61;91.77;100229.13;5026567;28;20036;-61
2021/12/09 05:57:03;;;;;;;16.27;5.60;;;;;;;0.62;91.28;100236.00;5023908;28;20393;-61
2021/12/09 05:59:28;;;;;;;14.43;5.50;;;;;;;0.61;91.25;100234.34;5025265;28;20496;-61
2021/12/09 06:01:54;;;;;;;11.77;5.77;;;;;;;0.64;91.28;100233.28;5024684;28;20033;-61
2021/12/09 06:04:21;;;;;;;16.53;5.70;;;;;;;0.61;91.43;100234.34;5025744;28;20191;-61
2021/12/09 06:06:48;;;;;;;11.97;5.40;;;;;;;0.60;91.51;100232.63;5026995;28;20100;-61
2021/12/09 06:09:14;;;;;;;13.83;6.03;;;;;;;0.57;91.28;100230.28;5027549;28;20379;-61
2021/12/09 06:11:41;;;;;;;18.63;6.00;;;;;;;0.56;91.62;100230.38;5028238;28;20032;-61
2021/12/09 06:14:06;;;;;;;13.20;5.43;;;;;;;0.57;91.59;100232.03;5023134;28;20047;-61
2021/12/09 06:16:33;;;;;;;14.10;5.73;;;;;;;0.55;91.40;100234.78;5024433;28;20398;-61
2021/12/09 06:18:59;;;;;;;14.67;5.83;;;;;;;0.56;91.71;100226.00;5024026;28;20040;-61
2021/12/09 06:21:27;;;;;;;15.07;5.83;;;;;;;0.53;91.82;100231.44;5024715;28;20121;-61
2021/12/09 06:23:55;;;;;;;13.87;5.47;;;;;;;0.53;91.92;100226.22;5028359;28;20026;-61
2021/12/09 06:26:21;;;;;;;15.40;5.83;;;;;;;0.52;91.63;100224.53;5025936;28;20498;-61
2021/12/09 06:28:47;;;;;;;21.03;6.07;;;;;;;0.49;91.62;100228.22;5023683;28;20124;-61
2021/12/09 06:31:12;;;;;;;16.67;5.90;;;;;;;0.45;91.96;100223.34;5023294;28;20134;-61
2021/12/09 06:33:38;;;;;;;17.53;6.57;;;;;;;0.43;91.86;100226.03;5024115;28;20636;-61
2021/12/09 06:36:03;;;;;;;15.23;5.87;;;;;;;0.44;92.06;100234.72;5026399;28;20397;-61
2021/12/09 06:38:29;;;;;;;17.27;6.20;;;;;;;0.40;92.24;100227.09;5026422;28;20117;-61
2021/12/09 06:40:54;;;;;;;13.33;6.33;;;;;;;0.40;92.20;100237.53;5022111;28;20030;-61
2021/12/09 06:43:22;;;;;;;17.97;6.43;;;;;;;0.42;92.00;100228.75;5025905;28;20083;-61
2021/12/09 06:45:47;;;;;;;16.73;6.37;;;;;;;0.43;91.96;100246.09;5025184;28;20033;-61
2021/12/09 06:48:12;;;;;;;16.30;6.13;;;;;;;0.42;91.94;100242.66;5023115;28;20040;-61
2021/12/09 06:50:38;;;;;;;15.93;6.27;;;;;;;0.44;92.02;100247.75;5022295;28;20406;-61
2021/12/09 06:53:04;;;;;;;14.93;5.97;;;;;;;0.42;92.47;100244.41;5026995;28;20393;-62
2021/12/09 06:55:29;;;;;;;15.43;6.17;;;;;;;0.42;92.54;100244.41;5021115;28;20034;-62
2021/12/09 06:57:55;;;;;;;17.07;5.97;;;;;;;0.39;92.23;100251.53;5027091;28;20041;-62
2021/12/09 07:00:24;;;;;;;18.37;6.27;;;;;;;0.39;92.28;100251.53;5028659;28;20044;-61
2021/12/09 07:02:50;;;;;;;19.50;6.43;;;;;;;0.38;92.02;100249.88;5023993;28;20045;-62
2021/12/09 07:05:17;;;;;;;17.67;6.23;;;;;;;0.34;92.41;100245.81;5024606;28;20060;-62
2021/12/09 07:07:43;;;;;;;16.60;6.20;;;;;;;0.37;92.18;100258.63;5024489;28;20052;-62
2021/12/09 07:10:11;;;;;;;18.07;6.97;;;;;;;0.37;92.61;100258.63;5026313;28;20550;-60
2021/12/09 07:12:37;;;;;;;16.40;6.07;;;;;;;0.36;92.40;100256.13;5025777;28;20021;-63
2021/12/09 07:15:05;;;;;;;16.70;6.40;;;;;;;0.33;92.61;100257.19;5025529;28;20025;-62
2021/12/09 07:17:31;;;;;;;20.57;6.07;;;;;;;0.35;92.76;100255.28;5029902;28;20037;-62
2021/12/09 07:19:56;;;;;;;18.87;6.30;;;;;;;0.35;92.59;100260.50;5022415;28;20041;-62
2021/12/09 07:22:21;;;;;;;17.47;6.47;;;;;;;0.35;92.81;100255.28;5027039;28;20056;-62
2021/12/09 07:24:47;;;;;;;16.30;6.20;;;;;;;0.37;93.11;100260.41;5025562;28;20065;-56
2021/12/09 07:27:12;;;;;;;21.03;6.63;;;;;;;0.38;92.84;100256.84;5025921;28;20436;-62
2021/12/09 07:29:37;;;;;;;15.97;6.27;;;;;;;0.38;92.78;100254.22;5030919;28;20029;-62
2021/12/09 07:32:03;;;;;;;19.07;6.70;;;;;;;0.40;93.08;100253.19;5020894;28;20032;-62
2021/12/09 07:34:29;;;;;;;15.77;6.27;;;;;;;0.39;92.80;100251.53;5021417;28;20034;-62
2021/12/09 07:36:54;;;;;;;15.57;6.70;;;;;;;0.39;92.53;100261.97;5021244;28;20022;-62
2021/12/09 07:39:19;;;;;;;19.33;6.70;;;;;;;0.41;93.00;100261.84;5020236;28;20393;-62
2021/12/09 07:41:44;;;;;;;16.27;6.93;;;;;;;0.39;92.73;100268.94;5021847;28;20083;-62
2021/12/09 07:44:10;;;;;;;15.93;6.40;;;;;;;0.37;93.22;100263.84;5018158;28;20462;-62
2021/12/09 07:46:37;;;;;;;14.10;6.67;;;;;;;0.34;92.66;100266.66;5018736;28;20036;-61
2021/12/09 07:49:03;;;;;;;14.80;6.47;;;;;;;0.35;92.71;100270.94;5022286;28;20026;-62
2021/12/09 07:51:28;;;;;;;16.43;6.80;;;;;;;0.37;93.13;100266.47;5020429;28;20033;-62
2021/12/09 07:53:53;;;;;;;21.00;6.80;;;;;;;0.36;93.14;100270.00;5023926;28;20045;-62
2021/12/09 07:56:19;;;;;;;15.20;6.70;;;;;;;0.39;92.96;100267.19;5022213;28;20026;-61
2021/12/09 07:58:45;;;;;;;21.47;7.20;;;;;;;0.39;93.16;100267.19;5025764;28;20050;-63
2021/12/09 08:01:10;;;;;;;18.70;6.87;;;;;;;0.43;93.21;100261.75;5018621;28;20101;-62
2021/12/09 08:03:36;;;;;;;14.80;6.67;;;;;;;0.44;93.23;100268.63;5024304;28;20073;-62
2021/12/09 08:06:02;;;;;;;18.00;7.00;;;;;;;0.44;93.14;100279.06;5021963;28;20034;-62
2021/12/09 08:08:27;;;;;;;17.00;7.10;;;;;;;0.46;93.06;100282.38;5024343;28;20068;-62
2021/12/09 08:10:53;;;;;;;16.63;7.10;;;;;;;0.48;92.95;100290.94;5025959;28;20044;-62
2021/12/09 08:13:18;;;;;;;21.43;7.63;;;;;;;0.49;93.32;100288.22;5025357;28;20029;-62
2021/12/09 08:15:49;;;;;;;17.77;8.10;;;;;;;0.52;93.55;100292.38;5028213;28;20087;-62
2021/12/09 08:20:48;;;;;;;16.70;7.13;;;;;;;0.60;93.15;100300.50;5028910;28;20041;-58
2021/12/09 08:23:14;;;;;;;14.83;7.20;;;;;;;0.65;93.69;100298.38;5028461;28;20116;-58
2021/12/09 08:25:40;;;;;;;17.13;6.83;;;;;;;0.69;93.23;100298.19;5027198;28;20328;-59
2021/12/09 08:28:05;;;;;;;17.30;6.93;;;;;;;0.69;93.05;100285.94;5027555;28;20132;-59
2021/12/09 08:30:31;;;;;;;19.80;7.30;;;;;;;0.78;93.18;100287.06;5021755;28;20116;-59
2021/12/09 08:32:57;;;;;;;25.57;6.90;;;;;;;0.78;92.78;100289.66;5027603;28;20112;-58
2021/12/09 08:35:22;;;;;;;16.73;6.90;;;;;;;0.83;92.94;100287.56;5030863;28;20124;-58
2021/12/09 08:37:50;;;;;;;18.00;6.83;;;;;;;0.86;92.93;100283.91;5028080;28;20037;-58
2021/12/09 08:40:16;;;;;;;14.73;6.90;;;;;;;0.91;93.16;100284.41;5033186;28;20079;-59
2021/12/09 08:42:43;;;;;;;16.23;7.30;;;;;;;0.93;92.89;100285.94;5034977;28;20115;-58
2021/12/09 08:45:10;;;;;;;13.93;6.20;;;;;;;0.97;92.92;100281.34;5033295;28;20038;-59
2021/12/09 08:47:38;;;;;;;19.37;6.87;;;;;;;1.03;92.56;100295.72;5029739;28;20055;-59
2021/12/09 08:50:05;;;;;;;15.40;7.53;;;;;;;1.04;92.94;100292.19;5031519;28;20025;-59
2021/12/09 08:52:30;;;;;;;15.90;6.70;;;;;;;1.08;92.63;100298.81;5032085;28;20483;-59
2021/12/09 08:54:55;;;;;;;22.27;7.83;;;;;;;1.10;92.86;100302.16;5033207;28;20030;-58
2021/12/09 08:57:22;;;;;;;16.37;6.93;;;;;;;1.14;92.65;100303.59;5029334;28;20037;-59
2021/12/09 08:59:47;;;;;;;16.80;7.03;;;;;;;1.16;92.87;100293.88;5033078;28;20033;-59
2021/12/09 09:02:14;;;;;;;17.17;7.40;;;;;;;1.21;92.63;100303.97;5030716;28;20040;-59
2021/12/09 09:04:39;;;;;;;15.90;6.97;;;;;;;1.23;92.61;100291.63;5031589;28;20034;-58
2021/12/09 09:07:07;;;;;;;18.60;6.80;;;;;;;1.27;92.70;100297.44;5031460;28;20052;-59
2021/12/09 09:09:34;;;;;;;16.53;7.10;;;;;;;1.31;92.65;100302.34;5031862;28;20037;-59
2021/12/09 09:12:02;;;;;;;16.40;6.80;;;;;;;1.32;92.71;100290.09;5032963;28;20057;-58
2021/12/09 09:14:27;;;;;;;18.37;7.17;;;;;;;1.36;92.35;100296.78;5039025;28;20036;-59
2021/12/09 09:16:52;;;;;;;17.30;6.83;;;;;;;1.41;92.72;100296.41;5031250;28;20056;-59
2021/12/09 09:19:18;;;;;;;20.63;7.60;;;;;;;1.46;92.58;100294.31;5031730;28;20061;-59
2021/12/09 09:21:43;;;;;;;15.37;7.10;;;;;;;1.45;92.54;100296.09;5032352;28;20471;-59
2021/12/09 09:24:09;;;;;;;18.77;7.60;;;;;;;1.57;92.05;100296.09;5031614;28;20083;-59
2021/12/09 09:26:35;;;;;;;18.60;7.00;;;;;;;1.59;92.19;100299.44;5030790;28;20416;-59
2021/12/09 09:29:00;;;;;;;18.77;7.30;;;;;;;1.62;92.41;100291.34;5029527;28;20064;-58
2021/12/09 09:31:29;;;;;;;19.83;7.40;;;;;;;1.64;91.99;100297.31;5032678;28;20029;-58
2021/12/09 09:33:55;;;;;;;15.70;7.30;;;;;;;1.67;92.10;100304.91;5032859;28;20103;-59
2021/12/09 09:36:21;;;;;;;18.40;7.60;;;;;;;1.68;92.07;100300.53;5025086;28;20482;-58
2021/12/09 09:38:46;;;;;;;20.70;7.70;;;;;;;1.73;91.74;100299.22;5027926;28;20065;-58
2021/12/09 09:41:16;;;;;;;17.70;7.57;;;;;;;1.77;91.83;100304.22;5039308;28;20049;-59
2021/12/09 09:46:34;;;;;;;20.00;7.53;;;;;;;1.78;92.15;100305.88;5027688;28;20037;-59
2021/12/09 09:49:01;;;;;;;18.30;7.40;;;;;;;1.79;92.15;100312.78;5032012;28;20041;-59
2021/12/09 09:51:28;;;;;;;16.33;7.57;;;;;;;1.81;92.31;100310.84;5033024;28;20155;-57
2021/12/09 09:53:54;;;;;;;16.47;7.47;;;;;;;1.85;92.39;100313.16;5032598;28;20028;-59
2021/12/09 09:56:23;;;;;;;17.93;7.70;;;;;;;1.86;92.14;100321.81;5033122;28;20104;-58
2021/12/09 09:59:01;;;;;;;16.33;7.83;;;;;;;1.87;92.30;100320.84;5032290;28;20028;-58
2021/12/09 10:01:29;;;;;;;21.70;8.30;;;;;;;1.90;92.21;100323.25;5030836;28;20025;-58
2021/12/09 10:04:09;;;;;;;18.80;8.47;;;;;;;1.94;nan;100332.53;5028905;28;20128;-58
2021/12/09 10:06:35;;;;;;;22.87;8.50;;;;;;;2.00;92.15;100326.81;5030944;28;20037;-58
2021/12/09 10:09:01;;;;;;;17.43;7.90;;;;;;;2.05;91.45;100320.38;5032738;28;20045;-59
2021/12/09 10:11:26;;;;;;;19.50;7.97;;;;;;;2.10;91.75;100320.88;5032217;28;20048;-58
2021/12/09 10:13:51;;;;;;;21.30;8.80;;;;;;;2.11;91.91;100312.91;5032223;28;20040;-59
2021/12/09 10:16:21;;;;;;;16.67;8.27;;;;;;;2.16;91.31;100304.69;5029120;28;20051;-58
2021/12/09 10:18:48;;;;;;;17.53;8.03;;;;;;;2.22;91.35;100308.63;5030516;28;20040;-59
2021/12/09 10:21:25;;;;;;;17.37;7.83;;;;;;;2.22;91.52;100309.44;5029510;28;20386;-59
2021/12/09 10:24:02;;;;;;;17.97;7.97;;;;;;;2.26;91.68;100303.03;5018108;28;20076;-58
2021/12/09 10:26:34;;;;;;;22.37;8.63;;;;;;;2.31;91.40;100301.84;5029833;28;20544;-59
2021/12/09 10:29:35;;;;;;;20.00;7.77;;;;;;;2.37;91.25;100291.72;5025401;28;20040;-59
2021/12/09 10:32:06;;;;;;;16.53;8.07;;;;;;;2.35;91.40;100284.94;5030576;28;20652;-59
2021/12/09 10:34:40;;;;;;;16.70;8.17;;;;;;;2.45;91.13;100298.94;5031869;28;20044;-59
2021/12/09 10:37:23;;;;;;;16.83;7.70;;;;;;;2.43;90.92;100285.16;5030345;28;20031;-59
2021/12/09 10:39:51;;;;;;;17.10;8.20;;;;;;;2.44;91.30;100294.69;5028228;28;20022;-62
2021/12/09 10:42:22;;;;;;;20.10;7.67;;;;;;;2.46;91.27;100292.75;5030307;28;20552;-60
2021/12/09 10:44:48;;;;;;;16.40;7.60;;;;;;;2.51;90.66;100297.66;5028683;28;20139;-60
2021/12/09 10:47:23;;;;;;;17.77;8.00;;;;;;;2.46;90.92;100295.38;5024261;28;20040;-58
2021/12/09 10:50:03;;;;;;;17.97;8.53;;;;;;;2.48;91.27;100303.97;5024941;28;20037;-66
2021/12/09 10:52:38;;;;;;;17.83;8.20;;;;;;;2.48;91.00;100305.72;5024534;28;20427;-57
2021/12/09 10:55:20;;;;;;;15.30;7.93;;;;;;;2.52;91.31;100304.53;5024656;28;20164;-58
2021/12/09 10:57:53;;;;;;;15.57;8.40;;;;;;;2.52;91.35;100300.13;5028340;28;20037;-58
2021/12/09 11:00:26;;;;;;;23.27;8.57;;;;;;;2.55;91.10;100305.13;5027886;28;20029;-58
2021/12/09 11:03:00;;;;;;;;;;;;;;;2.64;91.27;100308.81;5030666;28;20168;-56
2021/12/09 11:05:25;;;;;;;;;;;;;;;2.71;90.24;100305.69;5030531;28;19917;-59
2021/12/09 11:07:50;;;;;;;15.03;8.30;;;;;;;2.66;90.31;100306.88;5030322;28;20351;-59
2021/12/09 11:10:23;;;;;;;17.07;8.27;;;;;;;2.63;90.65;100290.59;5025048;28;20032;-60
2021/12/09 11:12:51;;;;;;;17.88;8.65;;;;;;;2.67;91.33;100295.44;5028945;28;20028;-59
2021/12/09 11:15:18;;;;;;;17.27;8.73;;;;;;;2.71;90.83;100293.41;5024364;28;20406;-57
2021/12/09 11:17:46;;;;;;;16.33;8.30;;;;;;;2.72;91.09;100292.47;5023875;28;20506;-59
2021/12/09 11:20:12;;;;;;;15.80;8.30;;;;;;;2.75;90.83;100288.75;5026681;28;20450;-58
2021/12/09 11:22:38;;;;;;;18.43;8.67;;;;;;;2.77;91.19;100285.06;5022610;28;20041;-58
2021/12/09 11:25:05;;;;;;;14.20;8.03;;;;;;;2.79;90.99;100280.56;5023859;28;20482;-58
2021/12/09 11:27:31;;;;;;;15.23;8.18;;;;;;;2.81;91.23;100277.78;5020832;28;20158;-58
2021/12/09 11:30:10;;;;;;;18.27;8.23;;;;;;;2.78;91.26;100273.66;5022412;28;20025;-57
2021/12/09 11:32:48;;;;;;;14.67;7.60;;;;;;;2.86;91.02;100280.06;5013184;28;20029;-58
2021/12/09 11:35:20;;;;;;;17.07;7.83;;;;;;;2.87;90.83;100273.84;5020502;28;20064;-59